Time;durP1;ratioP1;P1;durP2;ratioP2;P2;SDS_P1;SDS_P2;PMS_P1;PMS_P2;Temp;Humidity;BMP_temperature;BMP_pressure;BME280_temperature;BME280_humidity;BME280_pressure;Samples;Min_cycle;Max_cycle;Signal;HPM_P1;HPM_P2
2021/06/30 00:00:50;;;;;;;;;;;25.70;47.10;;;;;;1548639;76;1131;-68
2021/06/30 00:02:52;;;;;;;;;;;25.70;47.00;;;;;;1542024;76;803;-66
2021/06/30 00:04:53;;;;;;;;;;;25.70;47.00;;;;;;1540098;76;785;-66
2021/06/30 00:06:55;;;;;;;;;;;25.70;47.10;;;;;;1550880;76;793;-66
2021/06/30 00:08:57;;;;;;;;;;;25.70;47.10;;;;;;1550151;76;729;-67
2021/06/30 00:10:59;;;;;;;;;;;25.70;47.20;;;;;;1541822;76;1059;-68
2021/06/30 00:13:01;;;;;;;;;;;25.70;47.20;;;;;;1542998;76;707;-66
2021/06/30 00:15:07;;;;;;;;;;;25.70;47.20;;;;;;1549057;76;1942;-66
2021/06/30 00:17:09;;;;;;;;;;;25.70;47.00;;;;;;1549936;76;756;-66
2021/06/30 00:19:11;;;;;;;;;;;25.70;47.10;;;;;;1548268;76;776;-66
2021/06/30 00:21:13;;;;;;;;;;;25.70;46.90;;;;;;1537987;76;760;-65
2021/06/30 00:23:15;;;;;;;;;;;25.70;47.00;;;;;;1545181;76;691;-69
2021/06/30 00:25:17;;;;;;;;;;;25.70;46.90;;;;;;1549161;76;801;-66
2021/06/30 00:27:19;;;;;;;;;;;25.70;46.90;;;;;;1548801;75;763;-66
2021/06/30 00:29:21;;;;;;;;;;;25.60;46.80;;;;;;1535070;76;1100;-65
2021/06/30 00:31:23;;;;;;;;;;;25.70;46.80;;;;;;1551427;75;769;-65
2021/06/30 00:33:25;;;;;;;;;;;25.70;46.80;;;;;;1551604;75;776;-65
2021/06/30 00:35:27;;;;;;;;;;;25.70;46.80;;;;;;1566845;75;1942;-68
2021/06/30 00:37:28;;;;;;;;;;;25.70;46.70;;;;;;1551524;75;789;-65
2021/06/30 00:39:30;;;;;;;;;;;25.70;46.60;;;;;;1565874;75;1147;-65
2021/06/30 00:41:32;;;;;;;;;;;25.70;46.50;;;;;;1556662;75;768;-64
2021/06/30 00:43:34;;;;;;;;;;;25.60;46.50;;;;;;1562257;75;726;-62
2021/06/30 00:45:36;;;;;;;;;;;25.70;46.50;;;;;;1556902;75;785;-65
2021/06/30 00:47:38;;;;;;;;;;;25.70;46.50;;;;;;1553522;75;771;-66
2021/06/30 00:49:40;;;;;;;;;;;25.70;46.40;;;;;;1565568;75;1149;-66
2021/06/30 00:51:42;;;;;;;;;;;25.70;46.30;;;;;;1555177;75;748;-66
2021/06/30 00:53:43;;;;;;;;;;;25.70;46.30;;;;;;1560820;75;732;-66
2021/06/30 00:55:47;;;;;;;;;;;25.70;46.30;;;;;;1555186;75;1951;-69
2021/06/30 00:57:49;;;;;;;;;;;25.70;46.30;;;;;;1555606;75;1099;-62
2021/06/30 00:59:51;;;;;;;;;;;25.70;46.40;;;;;;1560180;75;1111;-67
2021/06/30 01:01:53;;;;;;;;;;;25.70;46.40;;;;;;1555534;75;808;-66
2021/06/30 01:03:55;;;;;;;;;;;25.70;46.40;;;;;;1561325;75;758;-64
2021/06/30 01:05:57;;;;;;;;;;;25.70;46.30;;;;;;1559327;75;768;-65
2021/06/30 01:07:59;;;;;;;;;;;25.70;46.30;;;;;;1556488;75;723;-68
2021/06/30 01:10:01;;;;;;;;;;;25.70;46.30;;;;;;1565346;75;1106;-65
2021/06/30 01:12:02;;;;;;;;;;;25.70;46.20;;;;;;1561862;75;800;-66
2021/06/30 01:14:04;;;;;;;;;;;25.70;46.30;;;;;;1565078;75;754;-65
2021/06/30 01:16:06;;;;;;;;;;;25.70;46.20;;;;;;1557083;75;1918;-65
2021/06/30 01:18:09;;;;;;;;;;;25.70;46.30;;;;;;1566288;75;770;-67
2021/06/30 01:20:10;;;;;;;;;;;25.70;46.20;;;;;;1564775;75;1264;-67
2021/06/30 01:22:12;;;;;;;;;;;25.80;46.20;;;;;;1564974;75;826;-69
2021/06/30 01:24:14;;;;;;;;;;;25.70;46.00;;;;;;1566599;75;693;-67
2021/06/30 01:26:16;;;;;;;;;;;25.70;45.80;;;;;;1554952;75;713;-68
2021/06/30 01:28:18;;;;;;;;;;;25.80;45.70;;;;;;1570636;75;817;-67
2021/06/30 01:30:20;;;;;;;;;;;25.70;45.90;;;;;;1564530;75;1151;-66
2021/06/30 01:32:22;;;;;;;;;;;25.70;46.00;;;;;;1569701;75;783;-66
2021/06/30 01:34:24;;;;;;;;;;;25.80;45.80;;;;;;1566576;75;898;-65
2021/06/30 01:36:25;;;;;;;;;;;25.70;45.70;;;;;;1565784;75;1939;-66
2021/06/30 01:38:28;;;;;;;;;;;25.70;45.70;;;;;;1570692;75;737;-66
2021/06/30 01:40:30;;;;;;;;;;;25.70;45.70;;;;;;1558257;75;1164;-66
2021/06/30 01:42:32;;;;;;;;;;;25.70;45.70;;;;;;1565772;75;756;-65
2021/06/30 01:44:34;;;;;;;;;;;25.70;45.60;;;;;;1570109;75;756;-65
2021/06/30 01:46:36;;;;;;;;;;;25.70;45.60;;;;;;1569660;75;842;-65
2021/06/30 01:48:37;;;;;;;;;;;25.60;45.50;;;;;;1561514;75;715;-65
2021/06/30 01:50:40;;;;;;;;;;;25.70;45.50;;;;;;1569732;75;1233;-67
2021/06/30 01:52:42;;;;;;;;;;;25.70;45.40;;;;;;1568306;75;752;-68
2021/06/30 01:54:43;;;;;;;;;;;25.60;45.60;;;;;;1567565;75;776;-66
2021/06/30 01:56:47;;;;;;;;;;;25.60;45.30;;;;;;1563624;75;1947;-69
2021/06/30 01:58:51;;;;;;;;;;;25.70;45.50;;;;;;1569655;75;768;-65
2021/06/30 02:00:53;;;;;;;;;;;25.70;45.40;;;;;;1564089;75;1907;-66
2021/06/30 02:02:55;;;;;;;;;;;25.60;45.30;;;;;;1558812;75;665;-66
2021/06/30 02:05:01;;;;;;;;;;;25.60;45.20;;;;;;1569217;75;789;-65
2021/06/30 02:07:03;;;;;;;;;;;25.50;45.20;;;;;;1569051;75;1917;-65
2021/06/30 02:09:06;;;;;;;;;;;25.60;45.00;;;;;;1564644;75;748;-63
2021/06/30 02:11:08;;;;;;;;;;;25.50;45.00;;;;;;1570635;75;1089;-69
2021/06/30 02:13:10;;;;;;;;;;;25.50;45.20;;;;;;1561859;75;704;-69
2021/06/30 02:15:13;;;;;;;;;;;25.50;45.00;;;;;;1563011;75;1947;-65
2021/06/30 02:17:18;;;;;;;;;;;25.60;44.90;;;;;;1567185;75;695;-66
2021/06/30 02:19:18;;;;;;;;;;;25.60;45.00;;;;;;1568140;75;1615;-66
2021/06/30 02:21:20;;;;;;;;;;;25.50;45.00;;;;;;1567440;75;671;-66
2021/06/30 02:23:22;;;;;;;;;;;25.50;44.90;;;;;;1566231;75;711;-67
2021/06/30 02:25:26;;;;;;;;;;;25.50;44.90;;;;;;1569636;75;1020;-67
2021/06/30 02:27:27;;;;;;;;;;;25.50;44.80;;;;;;1562333;75;1822;-66
2021/06/30 02:29:29;;;;;;;;;;;25.50;44.80;;;;;;1567800;75;1080;-67
2021/06/30 02:31:31;;;;;;;;;;;25.50;44.70;;;;;;1566175;75;792;-69
2021/06/30 02:33:33;;;;;;;;;;;25.50;44.70;;;;;;1565772;75;740;-68
2021/06/30 02:35:35;;;;;;;;;;;25.50;44.70;;;;;;1568793;75;1939;-69
2021/06/30 02:37:37;;;;;;;;;;;25.50;44.70;;;;;;1568156;75;803;-68
2021/06/30 02:39:39;;;;;;;;;;;25.50;44.70;;;;;;1570284;75;1168;-67
2021/06/30 02:41:41;;;;;;;;;;;25.50;44.70;;;;;;1564177;75;762;-67
2021/06/30 02:43:43;;;;;;;;;;;25.50;44.60;;;;;;1570532;75;729;-68
2021/06/30 02:45:45;;;;;;;;;;;25.50;44.40;;;;;;1569143;75;770;-67
2021/06/30 02:47:47;;;;;;;;;;;25.60;44.40;;;;;;1565192;75;788;-66
2021/06/30 02:49:49;;;;;;;;;;;25.50;44.40;;;;;;1563462;75;1217;-66
2021/06/30 02:51:51;;;;;;;;;;;25.50;44.40;;;;;;1569203;75;762;-66
2021/06/30 02:53:52;;;;;;;;;;;25.50;44.40;;;;;;1569635;75;740;-67
2021/06/30 02:55:54;;;;;;;;;;;25.50;44.40;;;;;;1572682;75;1916;-70
2021/06/30 02:57:56;;;;;;;;;;;25.40;44.40;;;;;;1566226;75;779;-71
2021/06/30 02:59:58;;;;;;;;;;;25.40;44.50;;;;;;1558645;75;1135;-71
2021/06/30 03:02:00;;;;;;;;;;;25.40;44.60;;;;;;1565247;75;706;-72
2021/06/30 03:04:02;;;;;;;;;;;25.50;44.60;;;;;;1568591;75;726;-71
2021/06/30 03:06:04;;;;;;;;;;;25.40;44.60;;;;;;1567926;75;813;-70
2021/06/30 03:08:06;;;;;;;;;;;25.50;44.60;;;;;;1552952;75;671;-72
2021/06/30 03:10:08;;;;;;;;;;;25.50;44.50;;;;;;1555643;75;1151;-73
2021/06/30 03:12:10;;;;;;;;;;;25.40;44.60;;;;;;1552730;75;694;-70
2021/06/30 03:14:12;;;;;;;;;;;25.40;44.50;;;;;;1559102;75;634;-73
2021/06/30 03:16:15;;;;;;;;;;;25.40;44.50;;;;;;1564422;75;1943;-69
2021/06/30 03:18:17;;;;;;;;;;;25.40;44.40;;;;;;1556426;75;732;-72
2021/06/30 03:20:19;;;;;;;;;;;25.40;44.40;;;;;;1553129;75;1144;-71
2021/06/30 03:22:21;;;;;;;;;;;25.40;44.30;;;;;;1558015;75;823;-73
2021/06/30 03:24:23;;;;;;;;;;;25.40;44.30;;;;;;1571953;75;817;-70
2021/06/30 03:26:24;;;;;;;;;;;25.40;44.20;;;;;;1568742;75;791;-69
2021/06/30 03:28:26;;;;;;;;;;;25.40;44.20;;;;;;1558513;75;806;-70
2021/06/30 03:30:31;;;;;;;;;;;25.40;44.10;;;;;;1562282;75;1146;-70
2021/06/30 03:32:32;;;;;;;;;;;25.40;44.20;;;;;;1557102;75;1757;-73
2021/06/30 03:34:34;;;;;;;;;;;25.40;44.20;;;;;;1567195;75;748;-74
2021/06/30 03:36:36;;;;;;;;;;;25.40;44.10;;;;;;1566626;75;1959;-72
2021/06/30 03:38:38;;;;;;;;;;;25.40;44.20;;;;;;1567922;75;796;-74
2021/06/30 03:40:40;;;;;;;;;;;25.40;44.20;;;;;;1564855;75;1102;-70
2021/06/30 03:42:41;;;;;;;;;;;25.30;44.30;;;;;;1563217;75;731;-71
2021/06/30 03:44:43;;;;;;;;;;;25.40;44.20;;;;;;1568318;75;702;-70
2021/06/30 03:46:45;;;;;;;;;;;25.40;44.00;;;;;;1564429;75;776;-70
2021/06/30 03:48:47;;;;;;;;;;;25.40;44.00;;;;;;1565020;75;881;-70
2021/06/30 03:50:49;;;;;;;;;;;25.40;43.90;;;;;;1567946;75;1168;-72
2021/06/30 03:52:51;;;;;;;;;;;25.50;43.90;;;;;;1566506;75;804;-74
2021/06/30 03:54:56;;;;;;;;;;;25.40;43.90;;;;;;1565435;75;727;-70
2021/06/30 03:56:58;;;;;;;;;;;25.50;43.90;;;;;;1570497;75;1902;-71
2021/06/30 03:59:00;;;;;;;;;;;25.40;43.90;;;;;;1557909;75;805;-71
2021/06/30 04:01:01;;;;;;;;;;;25.40;44.00;;;;;;1551169;75;1127;-73
2021/06/30 04:03:03;;;;;;;;;;;25.40;44.00;;;;;;1569831;75;746;-75
2021/06/30 04:05:05;;;;;;;;;;;25.30;44.00;;;;;;1556037;75;930;-72
2021/06/30 04:07:07;;;;;;;;;;;25.40;44.00;;;;;;1559697;75;723;-70
2021/06/30 04:09:09;;;;;;;;;;;25.40;44.00;;;;;;1557224;75;806;-72
2021/06/30 04:11:11;;;;;;;;;;;25.40;44.10;;;;;;1563114;75;1154;-73
2021/06/30 04:13:16;;;;;;;;;;;25.40;44.10;;;;;;1554995;75;677;-71
2021/06/30 04:15:16;;;;;;;;;;;25.40;44.10;;;;;;1546590;75;1701;-72
2021/06/30 04:17:18;;;;;;;;;;;25.40;44.10;;;;;;1568717;75;1945;-73
2021/06/30 04:19:21;;;;;;;;;;;25.30;44.20;;;;;;1552599;75;1134;-73
2021/06/30 04:21:23;;;;;;;;;;;25.40;44.20;;;;;;1559893;75;742;-73
2021/06/30 04:23:25;;;;;;;;;;;25.40;44.20;;;;;;1566302;75;796;-75
2021/06/30 04:25:27;;;;;;;;;;;25.50;44.20;;;;;;1555930;75;809;-72
2021/06/30 04:27:28;;;;;;;;;;;25.40;44.20;;;;;;1556724;75;798;-73
2021/06/30 04:29:30;;;;;;;;;;;25.40;44.10;;;;;;1562198;75;1143;-71
2021/06/30 04:31:32;;;;;;;;;;;25.40;44.20;;;;;;1560200;75;776;-75
2021/06/30 04:33:34;;;;;;;;;;;25.30;44.20;;;;;;1564005;75;809;-75
2021/06/30 04:35:36;;;;;;;;;;;25.40;44.10;;;;;;1551849;75;806;-75
2021/06/30 04:37:38;;;;;;;;;;;25.40;43.90;;;;;;1564739;75;1935;-75
2021/06/30 04:39:40;;;;;;;;;;;25.40;44.00;;;;;;1559512;75;1172;-72
2021/06/30 04:41:42;;;;;;;;;;;25.40;44.00;;;;;;1555092;75;616;-74
2021/06/30 04:43:44;;;;;;;;;;;25.40;43.80;;;;;;1550467;75;751;-71
2021/06/30 04:45:45;;;;;;;;;;;25.40;43.80;;;;;;1560043;75;771;-73
2021/06/30 04:47:47;;;;;;;;;;;25.40;43.90;;;;;;1564884;75;828;-72
2021/06/30 04:49:49;;;;;;;;;;;25.40;43.80;;;;;;1559479;75;1237;-73
2021/06/30 04:51:51;;;;;;;;;;;25.40;43.90;;;;;;1554245;75;704;-73
2021/06/30 04:53:53;;;;;;;;;;;25.40;43.90;;;;;;1554709;75;716;-74
2021/06/30 04:55:55;;;;;;;;;;;25.30;43.90;;;;;;1546925;75;691;-75
2021/06/30 04:57:57;;;;;;;;;;;25.30;43.90;;;;;;1561398;75;1947;-74
2021/06/30 04:59:58;;;;;;;;;;;25.40;43.90;;;;;;1565014;75;1160;-70
2021/06/30 05:02:00;;;;;;;;;;;25.30;43.90;;;;;;1559401;75;742;-70
2021/06/30 05:04:03;;;;;;;;;;;25.40;43.90;;;;;;1560147;75;745;-72
2021/06/30 05:06:05;;;;;;;;;;;25.40;43.90;;;;;;1554046;75;815;-72
2021/06/30 05:08:07;;;;;;;;;;;25.40;43.90;;;;;;1565381;75;752;-71
2021/06/30 05:10:09;;;;;;;;;;;25.40;43.90;;;;;;1564866;75;1126;-69
2021/06/30 05:12:11;;;;;;;;;;;25.40;43.90;;;;;;1550500;75;839;-75
2021/06/30 05:14:12;;;;;;;;;;;25.40;43.90;;;;;;1553205;75;702;-72
2021/06/30 05:16:14;;;;;;;;;;;25.40;44.00;;;;;;1565127;75;658;-71
2021/06/30 05:18:16;;;;;;;;;;;25.40;44.10;;;;;;1562494;75;1940;-74
2021/06/30 05:20:18;;;;;;;;;;;25.50;43.90;;;;;;1556896;75;1119;-70
2021/06/30 05:22:20;;;;;;;;;;;25.40;43.80;;;;;;1556375;75;755;-73
2021/06/30 05:24:23;;;;;;;;;;;25.40;43.80;;;;;;1555525;75;795;-73
2021/06/30 05:26:25;;;;;;;;;;;25.40;43.70;;;;;;1558214;75;724;-73
2021/06/30 05:28:27;;;;;;;;;;;25.40;43.90;;;;;;1560538;75;655;-73
2021/06/30 05:30:29;;;;;;;;;;;25.40;43.80;;;;;;1554483;75;1145;-73
2021/06/30 05:32:31;;;;;;;;;;;25.40;43.90;;;;;;1550651;73;221059;-70
2021/06/30 05:34:33;;;;;;;;;;;25.40;43.90;;;;;;1611403;72;629;-68
2021/06/30 05:36:34;;;;;;;;;;;25.40;44.00;;;;;;1591695;73;1937;-70
2021/06/30 05:38:36;;;;;;;;;;;25.40;43.90;;;;;;1584375;73;703;-69
2021/06/30 05:40:38;;;;;;;;;;;25.40;43.90;;;;;;1581962;74;784;-68
2021/06/30 05:42:42;;;;;;;;;;;25.50;43.80;;;;;;1625131;72;1202;-68
2021/06/30 05:44:43;;;;;;;;;;;25.50;43.90;;;;;;1613224;73;677;-69
2021/06/30 05:46:45;;;;;;;;;;;25.50;43.80;;;;;;1620251;73;668;-68
2021/06/30 05:48:47;;;;;;;;;;;25.40;43.60;;;;;;1607735;73;729;-68
2021/06/30 05:50:49;;;;;;;;;;;25.50;43.20;;;;;;1588209;74;701;-68
2021/06/30 05:52:51;;;;;;;;;;;25.50;43.10;;;;;;1586955;73;1154;-69
2021/06/30 05:54:53;;;;;;;;;;;25.40;43.10;;;;;;1585875;74;694;-72
2021/06/30 05:56:55;;;;;;;;;;;25.30;43.10;;;;;;1589499;75;1926;-70
2021/06/30 05:58:57;;;;;;;;;;;25.40;43.10;;;;;;1586398;74;656;-68
2021/06/30 06:00:59;;;;;;;;;;;25.40;43.10;;;;;;1588713;74;804;-70
2021/06/30 06:03:00;;;;;;;;;;;25.40;43.30;;;;;;1581148;73;1130;-68
2021/06/30 06:05:02;;;;;;;;;;;25.50;43.30;;;;;;1579867;73;760;-69
2021/06/30 06:07:04;;;;;;;;;;;25.50;43.20;;;;;;1582111;73;753;-67
2021/06/30 06:09:06;;;;;;;;;;;25.50;43.20;;;;;;1579071;73;650;-69
2021/06/30 06:11:13;;;;;;;;;;;25.30;43.20;;;;;;1577293;73;670;-69
2021/06/30 06:13:12;;;;;;;;;;;25.40;43.20;;;;;;1581912;73;1084;-68
2021/06/30 06:15:14;;;;;;;;;;;25.40;43.20;;;;;;1591216;74;741;-66
2021/06/30 06:17:16;;;;;;;;;;;25.40;43.20;;;;;;1590955;74;1934;-68
2021/06/30 06:19:19;;;;;;;;;;;25.40;43.30;;;;;;1589915;74;672;-65
2021/06/30 06:21:21;;;;;;;;;;;25.40;43.30;;;;;;1589094;74;728;-68
2021/06/30 06:23:23;;;;;;;;;;;25.40;43.30;;;;;;1587813;73;1167;-68
2021/06/30 06:25:24;;;;;;;;;;;25.40;43.30;;;;;;1592207;73;705;-70
2021/06/30 06:27:27;;;;;;;;;;;25.30;43.30;;;;;;1580670;73;728;-71
2021/06/30 06:29:29;;;;;;;;;;;25.40;43.40;;;;;;1585807;74;736;-70
2021/06/30 06:31:30;;;;;;;;;;;25.40;43.40;;;;;;1581347;73;744;-70
2021/06/30 06:33:32;;;;;;;;;;;25.40;43.40;;;;;;1578351;73;1162;-70
2021/06/30 06:35:35;;;;;;;;;;;25.40;43.40;;;;;;1572391;74;707;-69
2021/06/30 06:37:37;;;;;;;;;;;25.50;43.40;;;;;;1568788;74;1935;-69
2021/06/30 06:39:40;;;;;;;;;;;25.40;43.30;;;;;;1557109;75;777;-67
2021/06/30 06:41:42;;;;;;;;;;;25.50;43.20;;;;;;1569376;74;787;-69
2021/06/30 06:43:44;;;;;;;;;;;25.40;43.40;;;;;;1576601;74;1193;-71
2021/06/30 06:45:45;;;;;;;;;;;25.50;43.00;;;;;;1573941;75;703;-69
2021/06/30 06:47:47;;;;;;;;;;;25.50;43.00;;;;;;1574201;74;744;-71
2021/06/30 06:49:49;;;;;;;;;;;25.60;42.10;;;;;;1576179;74;752;-71
2021/06/30 06:51:51;;;;;;;;;;;25.50;42.60;;;;;;1579113;75;814;-68
2021/06/30 06:53:53;;;;;;;;;;;25.60;42.40;;;;;;1577455;74;1127;-69
2021/06/30 06:55:57;;;;;;;;;;;25.60;42.30;;;;;;1571692;75;718;-69
2021/06/30 06:57:59;;;;;;;;;;;25.60;41.90;;;;;;1579412;74;1916;-69
2021/06/30 07:00:01;;;;;;;;;;;25.60;42.00;;;;;;1582737;75;740;-69
2021/06/30 07:02:04;;;;;;;;;;;25.60;41.70;;;;;;1581679;75;699;-69
2021/06/30 07:04:05;;;;;;;;;;;25.70;41.50;;;;;;1580330;74;1087;-68
2021/06/30 07:06:07;;;;;;;;;;;25.60;41.10;;;;;;1581547;75;717;-69
2021/06/30 07:08:09;;;;;;;;;;;25.60;40.90;;;;;;1577544;75;788;-69
2021/06/30 07:10:11;;;;;;;;;;;25.50;40.80;;;;;;1577720;74;669;-69
2021/06/30 07:12:13;;;;;;;;;;;25.50;40.20;;;;;;1578978;74;1140;-71
2021/06/30 07:14:15;;;;;;;;;;;25.40;40.90;;;;;;1574238;74;755;-68
2021/06/30 07:16:17;;;;;;;;;;;25.50;40.50;;;;;;1571409;74;787;-68
2021/06/30 07:18:19;;;;;;;;;;;25.50;40.40;;;;;;1575657;74;1942;-70
2021/06/30 07:20:21;;;;;;;;;;;25.40;39.60;;;;;;1576386;75;760;-69
2021/06/30 07:22:23;;;;;;;;;;;25.40;40.40;;;;;;1573726;74;1088;-69
2021/06/30 07:24:24;;;;;;;;;;;25.30;40.20;;;;;;1577984;74;695;-70
2021/06/30 07:26:26;;;;;;;;;;;25.30;39.70;;;;;;1566589;74;706;-71
2021/06/30 07:28:28;;;;;;;;;;;25.30;40.00;;;;;;1579215;74;740;-71
2021/06/30 07:30:30;;;;;;;;;;;25.40;40.30;;;;;;1562368;75;699;-72
2021/06/30 07:32:32;;;;;;;;;;;25.30;40.30;;;;;;1579126;75;1267;-70
2021/06/30 07:34:34;;;;;;;;;;;25.40;40.30;;;;;;1578868;74;765;-69
2021/06/30 07:36:36;;;;;;;;;;;25.40;40.50;;;;;;1578234;75;704;-68
2021/06/30 07:38:37;;;;;;;;;;;25.40;40.50;;;;;;1578965;74;1957;-72
2021/06/30 07:40:39;;;;;;;;;;;25.30;40.40;;;;;;1580306;74;714;-70
2021/06/30 07:42:41;;;;;;;;;;;25.30;40.50;;;;;;1572814;74;1153;-69
2021/06/30 07:44:45;;;;;;;;;;;25.30;40.20;;;;;;1578677;74;727;-69
2021/06/30 07:46:47;;;;;;;;;;;25.30;40.00;;;;;;1577639;75;801;-71
2021/06/30 07:48:50;;;;;;;;;;;25.30;40.20;;;;;;1571300;75;742;-71
2021/06/30 07:50:52;;;;;;;;;;;25.30;40.20;;;;;;1573104;75;666;-69
2021/06/30 07:52:53;;;;;;;;;;;25.30;40.00;;;;;;1573089;74;1157;-72
2021/06/30 07:54:55;;;;;;;;;;;25.30;40.00;;;;;;1578490;75;798;-73
2021/06/30 07:56:57;;;;;;;;;;;25.30;40.30;;;;;;1570905;75;694;-69
2021/06/30 07:59:00;;;;;;;;;;;25.20;40.20;;;;;;1575907;75;1946;-67
2021/06/30 08:01:02;;;;;;;;;;;25.30;40.30;;;;;;1576145;75;724;-70
2021/06/30 08:03:04;;;;;;;;;;;25.30;40.40;;;;;;1580819;75;1410;-69
2021/06/30 08:05:06;;;;;;;;;;;25.30;40.60;;;;;;1578353;75;694;-68
2021/06/30 08:07:08;;;;;;;;;;;25.30;40.70;;;;;;1572156;75;675;-71
2021/06/30 08:09:10;;;;;;;;;;;25.30;40.70;;;;;;1577890;75;686;-69
2021/06/30 08:11:12;;;;;;;;;;;25.40;40.60;;;;;;1577321;75;813;-68
2021/06/30 08:13:14;;;;;;;;;;;25.30;40.70;;;;;;1573335;74;1228;-67
2021/06/30 08:15:16;;;;;;;;;;;25.40;40.80;;;;;;1571297;74;764;-68
2021/06/30 08:17:18;;;;;;;;;;;25.40;40.70;;;;;;1571230;74;885;-69
2021/06/30 08:19:20;;;;;;;;;;;25.40;40.50;;;;;;1558136;74;1954;-69
2021/06/30 08:21:23;;;;;;;;;;;25.20;40.50;;;;;;1572681;74;682;-69
2021/06/30 08:23:25;;;;;;;;;;;25.30;40.50;;;;;;1574236;74;1974;-67
2021/06/30 08:25:27;;;;;;;;;;;25.30;40.40;;;;;;1572904;74;733;-64
2021/06/30 08:27:29;;;;;;;;;;;25.30;40.10;;;;;;1576294;74;783;-68
2021/06/30 08:29:31;;;;;;;;;;;25.30;40.00;;;;;;1569644;74;706;-68
2021/06/30 08:31:33;;;;;;;;;;;25.30;40.20;;;;;;1577276;74;721;-68
2021/06/30 08:33:34;;;;;;;;;;;25.30;39.90;;;;;;1574834;74;1156;-69
2021/06/30 08:35:36;;;;;;;;;;;25.20;39.90;;;;;;1576082;75;671;-73
2021/06/30 08:37:44;;;;;;;;;;;25.20;39.70;;;;;;1568367;74;1939;-71
2021/06/30 08:39:44;;;;;;;;;;;25.10;40.10;;;;;;1565870;74;1627;-71
2021/06/30 08:41:46;;;;;;;;;;;25.20;40.20;;;;;;1576725;75;670;-70
2021/06/30 08:43:48;;;;;;;;;;;25.10;40.20;;;;;;1578314;74;1133;-69
2021/06/30 08:45:50;;;;;;;;;;;25.10;40.40;;;;;;1576851;74;762;-69
2021/06/30 08:47:55;;;;;;;;;;;25.10;40.50;;;;;;1576355;74;717;-67
2021/06/30 08:49:57;;;;;;;;;;;25.10;40.60;;;;;;1567344;74;760;-73
2021/06/30 08:51:59;;;;;;;;;;;25.10;40.40;;;;;;1559119;75;1207;-70
2021/06/30 08:54:00;;;;;;;;;;;25.20;40.20;;;;;;1582470;74;1139;-69
2021/06/30 08:56:02;;;;;;;;;;;25.10;40.20;;;;;;1583418;75;710;-69
2021/06/30 08:58:04;;;;;;;;;;;25.20;40.10;;;;;;1575363;75;1929;-70
2021/06/30 09:00:06;;;;;;;;;;;25.20;40.10;;;;;;1578202;75;715;-69
2021/06/30 09:02:08;;;;;;;;;;;25.10;40.20;;;;;;1581086;75;714;-70
2021/06/30 09:04:12;;;;;;;;;;;25.10;40.20;;;;;;1547492;75;1132;-69
2021/06/30 09:06:14;;;;;;;;;;;25.10;40.20;;;;;;1580172;74;726;-72
2021/06/30 09:08:16;;;;;;;;;;;25.10;40.20;;;;;;1575688;74;741;-71
2021/06/30 09:10:37;;;;;;;;;;;25.10;40.20;;;;;;1568570;74;717;-71
2021/06/30 09:12:40;;;;;;;;;;;25.10;40.20;;;;;;1565884;74;1079;-68
2021/06/30 09:14:42;;;;;;;;;;;25.00;40.20;;;;;;1568902;74;695;-69
2021/06/30 09:17:00;;;;;;;;;;;25.10;40.30;;;;;;1571870;74;700;-70
2021/06/30 09:18:58;;;;;;;;;;;25.00;40.30;;;;;;1571650;74;1918;-70
2021/06/30 09:21:13;;;;;;;;;;;25.10;40.20;;;;;;1578916;74;739;-67
2021/06/30 09:23:15;;;;;;;;;;;25.10;40.00;;;;;;1574507;74;1135;-69
2021/06/30 09:25:28;;;;;;;;;;;25.10;39.90;;;;;;1579232;74;658;-68
2021/06/30 09:27:37;;;;;;;;;;;25.00;39.90;;;;;;1579921;75;733;-67
2021/06/30 09:29:41;;;;;;;;;;;25.00;40.00;;;;;;1576122;75;806;-69
2021/06/30 09:31:43;;;;;;;;;;;25.00;40.00;;;;;;1576618;74;1093;-72
2021/06/30 09:33:46;;;;;;;;;;;24.90;40.10;;;;;;1581540;74;1204;-69
2021/06/30 09:35:48;;;;;;;;;;;24.90;40.30;;;;;;1580109;75;784;-72
2021/06/30 09:37:50;;;;;;;;;;;24.90;40.30;;;;;;1580480;75;746;-72
2021/06/30 09:39:55;;;;;;;;;;;24.90;40.40;;;;;;1577951;74;1930;-72
2021/06/30 09:42:08;;;;;;;;;;;24.90;40.50;;;;;;1571926;74;725;-71
2021/06/30 09:44:11;;;;;;;;;;;24.90;40.40;;;;;;1578939;75;1106;-68
2021/06/30 09:46:18;;;;;;;;;;;24.90;40.60;;;;;;1574356;75;1080;-73
2021/06/30 09:48:33;;;;;;;;;;;24.80;40.60;;;;;;1564069;75;666;-71
2021/06/30 09:50:38;;;;;;;;;;;24.80;40.80;;;;;;1571701;75;905;-70
2021/06/30 09:52:41;;;;;;;;;;;24.90;41.00;;;;;;1575428;75;1177;-68
2021/06/30 09:54:43;;;;;;;;;;;24.80;41.10;;;;;;1583026;75;729;-72
2021/06/30 09:56:55;;;;;;;;;;;24.80;41.10;;;;;;1579152;75;1091;-70
2021/06/30 09:58:57;;;;;;;;;;;24.80;41.20;;;;;;1577667;75;1917;-69
2021/06/30 10:01:19;;;;;;;;;;;24.80;41.20;;;;;;1583534;75;674;-72
2021/06/30 10:03:39;;;;;;;;;;;24.80;41.30;;;;;;1580533;74;1160;-71
2021/06/30 10:05:41;;;;;;;;;;;24.80;41.40;;;;;;1579626;74;721;-70
2021/06/30 10:07:43;;;;;;;;;;;24.80;41.50;;;;;;1580546;75;727;-71
2021/06/30 10:09:52;;;;;;;;;;;24.80;41.60;;;;;;1576139;75;738;-71
2021/06/30 10:11:58;;;;;;;;;;;24.80;41.80;;;;;;1569920;75;678;-72
2021/06/30 10:14:00;;;;;;;;;;;24.80;41.70;;;;;;1569076;74;1118;-71
2021/06/30 10:16:02;;;;;;;;;;;24.80;41.80;;;;;;1575416;74;711;-68
2021/06/30 10:18:04;;;;;;;;;;;24.80;41.80;;;;;;1577249;74;732;-71
2021/06/30 10:20:07;;;;;;;;;;;24.70;42.00;;;;;;1580398;74;1921;-69
2021/06/30 10:22:10;;;;;;;;;;;24.80;42.10;;;;;;1577651;74;773;-69
2021/06/30 10:24:13;;;;;;;;;;;24.70;42.10;;;;;;1566914;75;1066;-69
2021/06/30 10:26:15;;;;;;;;;;;24.70;42.10;;;;;;1559872;75;718;-70
2021/06/30 10:28:17;;;;;;;;;;;24.70;42.20;;;;;;1559845;75;766;-69
2021/06/30 10:30:19;;;;;;;;;;;24.70;42.20;;;;;;1561035;75;709;-69
2021/06/30 10:32:21;;;;;;;;;;;24.80;42.30;;;;;;1561457;75;1206;-73
2021/06/30 10:34:24;;;;;;;;;;;24.70;42.30;;;;;;1558648;75;807;-70
2021/06/30 10:36:40;;;;;;;;;;;24.80;42.40;;;;;;1559430;74;875;-68
2021/06/30 10:38:51;;;;;;;;;;;24.80;42.50;;;;;;1536208;75;1928;-68
2021/06/30 10:40:53;;;;;;;;;;;24.70;42.60;;;;;;1563874;75;725;-70
2021/06/30 10:43:13;;;;;;;;;;;24.70;42.60;;;;;;1557177;75;1164;-69
2021/06/30 10:45:17;;;;;;;;;;;24.70;42.60;;;;;;1565813;75;699;-72
2021/06/30 10:47:39;;;;;;;;;;;24.70;42.60;;;;;;1563626;75;717;-71
2021/06/30 10:49:41;;;;;;;;;;;24.70;42.70;;;;;;1559509;75;682;-70
2021/06/30 10:51:44;;;;;;;;;;;24.60;42.60;;;;;;1556552;75;719;-70
2021/06/30 10:53:46;;;;;;;;;;;24.60;42.60;;;;;;1561706;75;1186;-70
2021/06/30 10:55:53;;;;;;;;;;;24.70;42.70;;;;;;1557880;75;716;-71
2021/06/30 10:57:53;;;;;;;;;;;24.60;42.70;;;;;;1557226;74;982;-69
2021/06/30 11:00:08;;;;;;;;;;;24.70;42.80;;;;;;1607162;72;1291;-56
2021/06/30 11:02:10;;;;;;;;;;;24.60;42.70;;;;;;1560687;73;1443;-56
2021/06/30 11:04:12;;;;;;;;;;;24.70;42.80;;;;;;1566017;75;1684;-56
2021/06/30 11:06:26;;;;;;;;;;;24.70;42.70;;;;;;1525824;76;1170;-56
2021/06/30 11:08:48;;;;;;;;;;;24.70;42.80;;;;;;1554996;75;699;-57
2021/06/30 11:10:51;;;;;;;;;;;24.60;42.80;;;;;;1554854;75;750;-56
2021/06/30 11:12:56;;;;;;;;;;;24.60;43.00;;;;;;1546407;75;1082;-57
2021/06/30 11:14:58;;;;;;;;;;;24.60;43.00;;;;;;1546061;75;673;-56
2021/06/30 11:17:00;;;;;;;;;;;24.60;42.90;;;;;;1546524;75;1002;-55
2021/06/30 11:19:02;;;;;;;;;;;24.70;43.10;;;;;;1554339;75;1940;-57
2021/06/30 11:21:04;;;;;;;;;;;24.70;42.90;;;;;;1553553;75;1134;-55
2021/06/30 11:23:17;;;;;;;;;;;24.70;42.90;;;;;;1534520;76;761;-56
2021/06/30 11:25:25;;;;;;;;;;;24.60;43.00;;;;;;1508847;78;1058;-56
2021/06/30 11:27:34;;;;;;;;;;;24.70;43.20;;;;;;1500115;78;693;-58
2021/06/30 11:30:03;;;;;;;;;;;24.60;43.10;;;;;;1500012;77;1604;-57
2021/06/30 11:31:51;;;;;;;;;;;24.60;43.30;;;;;;1511519;78;1416;-56
2021/06/30 11:34:04;;;;;;;;;;;24.50;43.20;;;;;;1562651;71;218160;-76
2021/06/30 11:36:06;;;;;;;;;;;24.50;43.20;;;;;;1578792;74;1171;-74
2021/06/30 11:38:12;;;;;;;;;;;24.50;43.20;;;;;;1584681;74;687;-75
2021/06/30 11:40:19;;;;;;;;;;;24.50;43.20;;;;;;1587080;74;671;-78
2021/06/30 11:42:31;;;;;;;;;;;24.60;43.20;;;;;;1592232;74;1156;-77
2021/06/30 11:44:34;;;;;;;;;;;24.50;43.30;;;;;;1556061;75;767;-80
2021/06/30 11:46:36;;;;;;;;;;;24.50;43.40;;;;;;1544267;75;741;-78
2021/06/30 11:48:38;;;;;;;;;;;24.50;43.30;;;;;;1551683;76;774;-75
2021/06/30 11:50:44;;;;;;;;;;;24.50;43.30;;;;;;1548451;76;982;-77
2021/06/30 11:52:46;;;;;;;;;;;24.50;43.50;;;;;;1549724;74;1156;-78
2021/06/30 11:54:49;;;;;;;;;;;24.60;43.60;;;;;;1555766;76;816;-76
2021/06/30 11:56:51;;;;;;;;;;;24.60;43.70;;;;;;1565662;76;1940;-76
2021/06/30 11:58:53;;;;;;;;;;;24.60;43.70;;;;;;1564767;75;1927;-77
2021/06/30 12:00:55;;;;;;;;;;;24.60;43.90;;;;;;1558322;76;771;-79
2021/06/30 12:03:03;;;;;;;;;;;24.60;44.20;;;;;;1561204;74;1089;-73
2021/06/30 12:05:13;;;;;;;;;;;24.50;44.30;;;;;;1560624;76;652;-77
2021/06/30 12:07:15;;;;;;;;;;;24.50;44.30;;;;;;1554025;75;1467;-79
2021/06/30 12:09:17;;;;;;;;;;;24.50;44.50;;;;;;1551111;76;713;-77
2021/06/30 12:11:32;;;;;;;;;;;24.50;44.70;;;;;;1555984;75;777;-75
2021/06/30 12:13:34;;;;;;;;;;;24.50;44.70;;;;;;1563467;74;1123;-77